This is the latest recevied weather packets stored in our database for station/object YB3RDW-13. If no packets are shown the sender has not sent any weather packets the latest 10 day(s).
| Time | Temp. | Humidity | Pressure | Rain* | Wind** | Luminosity | Snow |
|---|---|---|---|---|---|---|---|
| 1777623117 | 25.56° C | 95% | 1010 hPa | 0 mm | - | 42 W/m² | - |
| 1777622820 | 25° C | 95% | 1010 hPa | 0 mm | - | 43 W/m² | - |
| 1777622518 | 25.56° C | 95% | 1010 hPa | 0 mm | - | 46 W/m² | - |
| 1777622217 | 25° C | 95% | 1010 hPa | 0 mm | - | 43 W/m² | - |
| 1777621917 | 25° C | 96% | 1010 hPa | 0 mm | - | 35 W/m² | - |
| 1777621617 | 25° C | 97% | 1010 hPa | 1.27 mm | - | 43 W/m² | - |
| 1777621317 | 24.44° C | 97% | 1010 hPa | 39.62 mm | - | 39 W/m² | - |
| 1777621017 | 24.44° C | 97% | 1010 hPa | 86.36 mm | - | 29 W/m² | - |
| 1777620718 | 24.44° C | 97% | 1011 hPa | 70.1 mm | - | 21 W/m² | - |
| 1777620417 | 24.44° C | 97% | 1011 hPa | 39.62 mm | - | 20 W/m² | - |
| 1777620117 | 24.44° C | 97% | 1011 hPa | 46.23 mm | - | 20 W/m² | - |
| 1777619819 | 24.44° C | 97% | 1011 hPa | 54.61 mm | - | 17 W/m² | - |
| 1777619517 | 25° C | 97% | 1011 hPa | 74.42 mm | - | 21 W/m² | - |
| 1777619217 | 25° C | 96% | 1011 hPa | 94.23 mm | - | 30 W/m² | - |
| 1777618918 | 25° C | 95% | 1011 hPa | 85.09 mm | - | 29 W/m² | - |
| 1777618618 | 25.56° C | 94% | 1011 hPa | 50.29 mm | - | 27 W/m² | - |
| 1777618036 | 28.33° C | 87% | 1010 hPa | 18.54 mm | - | 34 W/m² | - |
| 1777617719 | 32.78° C | 75% | 1010 hPa | 7.87 mm | - | 74 W/m² | - |
| 1777617418 | 32.78° C | 69% | 1010 hPa | 0 mm | - | 207 W/m² | - |
| 1777617117 | 32.78° C | 69% | 1010 hPa | 0 mm | - | 138 W/m² | - |
| 1777616817 | 32.78° C | 69% | 1010 hPa | 0 mm | - | 209 W/m² | - |
| 1777616517 | 32.78° C | 69% | 1010 hPa | 0 mm | - | 294 W/m² | - |
| 1777616222 | 32.78° C | 69% | 1010 hPa | 0 mm | - | 231 W/m² | - |
| 1777615918 | 32.78° C | 67% | 1010 hPa | 0 mm | - | 277 W/m² | - |
| 1777615618 | 33.33° C | 66% | 1010 hPa | 0 mm | - | 231 W/m² | - |
* Rain latest hour (hover to see other rain measurements)
** Current wind speed in m/s (hover to see current wind gust speed)